sensor_id;sensor_type;location;lat;lon;timestamp;temperature;humidity
25248;DHT22;13191;47.472;11.214;2023-03-14T00:00:22;10.20;99.90
25248;DHT22;13191;47.472;11.214;2023-03-14T00:02:51;10.20;99.90
25248;DHT22;13191;47.472;11.214;2023-03-14T00:05:17;10.20;99.90
25248;DHT22;13191;47.472;11.214;2023-03-14T00:07:42;10.20;99.90
25248;DHT22;13191;47.472;11.214;2023-03-14T00:10:09;10.10;99.90
25248;DHT22;13191;47.472;11.214;2023-03-14T00:12:35;10.00;99.90
25248;DHT22;13191;47.472;11.214;2023-03-14T00:15:00;10.00;99.90
25248;DHT22;13191;47.472;11.214;2023-03-14T00:17:28;9.90;99.90
25248;DHT22;13191;47.472;11.214;2023-03-14T00:19:54;9.90;99.90
25248;DHT22;13191;47.472;11.214;2023-03-14T00:22:20;9.90;99.90
25248;DHT22;13191;47.472;11.214;2023-03-14T00:24:46;9.90;99.90
25248;DHT22;13191;47.472;11.214;2023-03-14T00:27:11;9.90;99.90
25248;DHT22;13191;47.472;11.214;2023-03-14T00:29:37;9.90;99.90
25248;DHT22;13191;47.472;11.214;2023-03-14T00:32:02;9.80;99.90
25248;DHT22;13191;47.472;11.214;2023-03-14T00:34:29;9.80;99.90
25248;DHT22;13191;47.472;11.214;2023-03-14T00:36:54;9.80;99.90
25248;DHT22;13191;47.472;11.214;2023-03-14T00:39:20;9.80;99.90
25248;DHT22;13191;47.472;11.214;2023-03-14T00:41:45;9.80;99.90
25248;DHT22;13191;47.472;11.214;2023-03-14T00:44:11;9.80;99.90
25248;DHT22;13191;47.472;11.214;2023-03-14T00:46:36;9.80;99.90
25248;DHT22;13191;47.472;11.214;2023-03-14T00:49:02;9.80;99.90
25248;DHT22;13191;47.472;11.214;2023-03-14T00:51:27;9.80;99.90
25248;DHT22;13191;47.472;11.214;2023-03-14T00:53:53;9.80;99.90
25248;DHT22;13191;47.472;11.214;2023-03-14T00:56:18;9.70;99.90
25248;DHT22;13191;47.472;11.214;2023-03-14T00:58:44;9.70;99.90
25248;DHT22;13191;47.472;11.214;2023-03-14T01:01:14;9.70;99.90
25248;DHT22;13191;47.472;11.214;2023-03-14T01:03:39;9.80;99.90
25248;DHT22;13191;47.472;11.214;2023-03-14T01:06:13;9.80;99.90
25248;DHT22;13191;47.472;11.214;2023-03-14T01:08:39;9.70;99.90
25248;DHT22;13191;47.472;11.214;2023-03-14T01:11:06;9.60;99.90
25248;DHT22;13191;47.472;11.214;2023-03-14T01:13:32;9.50;99.90
25248;DHT22;13191;47.472;11.214;2023-03-14T01:16:01;9.40;99.90
25248;DHT22;13191;47.472;11.214;2023-03-14T01:18:27;9.20;99.90
25248;DHT22;13191;47.472;11.214;2023-03-14T01:20:52;9.10;99.90
25248;DHT22;13191;47.472;11.214;2023-03-14T01:23:18;9.10;99.90
25248;DHT22;13191;47.472;11.214;2023-03-14T01:25:43;9.10;99.90
25248;DHT22;13191;47.472;11.214;2023-03-14T01:28:09;8.90;99.90
25248;DHT22;13191;47.472;11.214;2023-03-14T01:30:34;8.80;99.90
25248;DHT22;13191;47.472;11.214;2023-03-14T01:33:00;8.70;99.90
25248;DHT22;13191;47.472;11.214;2023-03-14T01:35:25;8.60;99.90
25248;DHT22;13191;47.472;11.214;2023-03-14T01:37:51;8.50;99.90
25248;DHT22;13191;47.472;11.214;2023-03-14T01:40:16;8.50;99.90
25248;DHT22;13191;47.472;11.214;2023-03-14T01:42:46;8.30;99.90
25248;DHT22;13191;47.472;11.214;2023-03-14T01:47:56;8.10;99.90
25248;DHT22;13191;47.472;11.214;2023-03-14T01:50:22;8.00;99.90
25248;DHT22;13191;47.472;11.214;2023-03-14T01:52:47;7.90;99.90
25248;DHT22;13191;47.472;11.214;2023-03-14T01:55:16;7.80;99.90
25248;DHT22;13191;47.472;11.214;2023-03-14T01:57:46;7.70;99.90
25248;DHT22;13191;47.472;11.214;2023-03-14T02:00:14;7.60;99.90
25248;DHT22;13191;47.472;11.214;2023-03-14T02:02:44;7.60;99.90
25248;DHT22;13191;47.472;11.214;2023-03-14T02:05:10;7.40;99.90
25248;DHT22;13191;47.472;11.214;2023-03-14T02:07:41;7.30;99.90
25248;DHT22;13191;47.472;11.214;2023-03-14T02:10:09;7.20;99.90
25248;DHT22;13191;47.472;11.214;2023-03-14T02:12:35;7.00;99.90
25248;DHT22;13191;47.472;11.214;2023-03-14T02:15:00;7.00;99.90
25248;DHT22;13191;47.472;11.214;2023-03-14T02:17:26;7.00;99.90
25248;DHT22;13191;47.472;11.214;2023-03-14T02:22:17;7.10;99.90
25248;DHT22;13191;47.472;11.214;2023-03-14T02:27:27;7.10;99.90
25248;DHT22;13191;47.472;11.214;2023-03-14T02:29:54;7.00;99.90
25248;DHT22;13191;47.472;11.214;2023-03-14T02:32:21;7.00;99.90
25248;DHT22;13191;47.472;11.214;2023-03-14T02:34:48;7.10;99.90
25248;DHT22;13191;47.472;11.214;2023-03-14T02:37:14;7.10;99.90
25248;DHT22;13191;47.472;11.214;2023-03-14T02:39:42;7.00;99.90
25248;DHT22;13191;47.472;11.214;2023-03-14T02:42:09;6.90;99.90
25248;DHT22;13191;47.472;11.214;2023-03-14T02:44:35;6.90;99.90
25248;DHT22;13191;47.472;11.214;2023-03-14T02:47:01;6.90;99.90
25248;DHT22;13191;47.472;11.214;2023-03-14T02:49:27;6.90;99.90
25248;DHT22;13191;47.472;11.214;2023-03-14T02:51:54;7.00;99.90
25248;DHT22;13191;47.472;11.214;2023-03-14T02:54:19;7.00;99.90
25248;DHT22;13191;47.472;11.214;2023-03-14T02:56:45;7.00;99.90
25248;DHT22;13191;47.472;11.214;2023-03-14T02:59:11;6.90;99.90
25248;DHT22;13191;47.472;11.214;2023-03-14T03:01:36;6.80;99.90
25248;DHT22;13191;47.472;11.214;2023-03-14T03:04:02;6.80;99.90
25248;DHT22;13191;47.472;11.214;2023-03-14T03:06:28;6.70;99.90
25248;DHT22;13191;47.472;11.214;2023-03-14T03:08:53;6.60;99.90
25248;DHT22;13191;47.472;11.214;2023-03-14T03:11:19;6.60;99.90
25248;DHT22;13191;47.472;11.214;2023-03-14T03:13:44;6.50;99.90
25248;DHT22;13191;47.472;11.214;2023-03-14T03:16:10;6.50;99.90
25248;DHT22;13191;47.472;11.214;2023-03-14T03:18:35;6.70;99.90
25248;DHT22;13191;47.472;11.214;2023-03-14T03:21:02;6.80;99.90
25248;DHT22;13191;47.472;11.214;2023-03-14T03:23:27;6.80;99.90
25248;DHT22;13191;47.472;11.214;2023-03-14T03:25:53;7.00;99.90
25248;DHT22;13191;47.472;11.214;2023-03-14T03:28:18;7.00;99.90
25248;DHT22;13191;47.472;11.214;2023-03-14T03:30:44;7.00;99.90
25248;DHT22;13191;47.472;11.214;2023-03-14T03:33:10;7.10;99.90
25248;DHT22;13191;47.472;11.214;2023-03-14T03:35:41;7.20;99.90
25248;DHT22;13191;47.472;11.214;2023-03-14T03:38:06;7.20;99.90
25248;DHT22;13191;47.472;11.214;2023-03-14T03:40:32;7.20;99.90
25248;DHT22;13191;47.472;11.214;2023-03-14T03:42:57;7.20;99.90
25248;DHT22;13191;47.472;11.214;2023-03-14T03:45:23;7.20;99.90
25248;DHT22;13191;47.472;11.214;2023-03-14T03:47:48;7.10;99.90
25248;DHT22;13191;47.472;11.214;2023-03-14T03:50:14;7.20;99.90
25248;DHT22;13191;47.472;11.214;2023-03-14T03:52:39;7.10;99.90
25248;DHT22;13191;47.472;11.214;2023-03-14T03:55:05;7.10;99.90
25248;DHT22;13191;47.472;11.214;2023-03-14T03:57:30;7.10;99.90
25248;DHT22;13191;47.472;11.214;2023-03-14T03:59:56;7.10;99.90
25248;DHT22;13191;47.472;11.214;2023-03-14T04:02:21;7.10;99.90
25248;DHT22;13191;47.472;11.214;2023-03-14T04:04:47;7.00;99.90
25248;DHT22;13191;47.472;11.214;2023-03-14T04:07:12;7.00;99.90
25248;DHT22;13191;47.472;11.214;2023-03-14T04:09:39;6.90;99.90
25248;DHT22;13191;47.472;11.214;2023-03-14T04:12:04;6.80;99.90
25248;DHT22;13191;47.472;11.214;2023-03-14T04:14:30;6.90;99.90
25248;DHT22;13191;47.472;11.214;2023-03-14T04:16:55;6.80;99.90
25248;DHT22;13191;47.472;11.214;2023-03-14T04:19:21;6.70;99.90
25248;DHT22;13191;47.472;11.214;2023-03-14T04:21:46;6.70;99.90
25248;DHT22;13191;47.472;11.214;2023-03-14T04:24:12;6.70;99.90
25248;DHT22;13191;47.472;11.214;2023-03-14T04:26:38;6.70;99.90
25248;DHT22;13191;47.472;11.214;2023-03-14T04:29:03;6.70;99.90
25248;DHT22;13191;47.472;11.214;2023-03-14T04:31:29;6.70;99.90
25248;DHT22;13191;47.472;11.214;2023-03-14T04:33:54;6.70;99.90
25248;DHT22;13191;47.472;11.214;2023-03-14T04:36:20;6.60;99.90
25248;DHT22;13191;47.472;11.214;2023-03-14T04:38:45;6.60;99.90
25248;DHT22;13191;47.472;11.214;2023-03-14T04:41:11;6.60;99.90
25248;DHT22;13191;47.472;11.214;2023-03-14T04:43:36;6.60;99.90
25248;DHT22;13191;47.472;11.214;2023-03-14T04:46:02;6.70;99.90
25248;DHT22;13191;47.472;11.214;2023-03-14T04:48:27;6.70;99.90
25248;DHT22;13191;47.472;11.214;2023-03-14T04:50:53;6.70;99.90
25248;DHT22;13191;47.472;11.214;2023-03-14T04:53:19;6.70;99.90
25248;DHT22;13191;47.472;11.214;2023-03-14T04:55:48;6.70;99.90
25248;DHT22;13191;47.472;11.214;2023-03-14T04:58:14;6.80;99.90
25248;DHT22;13191;47.472;11.214;2023-03-14T05:00:39;6.80;99.90
25248;DHT22;13191;47.472;11.214;2023-03-14T05:03:05;6.80;99.90
25248;DHT22;13191;47.472;11.214;2023-03-14T05:05:30;6.90;99.90
25248;DHT22;13191;47.472;11.214;2023-03-14T05:07:56;6.90;99.90
25248;DHT22;13191;47.472;11.214;2023-03-14T05:10:21;6.80;99.90
25248;DHT22;13191;47.472;11.214;2023-03-14T05:12:47;6.80;99.90
25248;DHT22;13191;47.472;11.214;2023-03-14T05:15:12;6.70;99.90
25248;DHT22;13191;47.472;11.214;2023-03-14T05:17:38;6.70;99.90
25248;DHT22;13191;47.472;11.214;2023-03-14T05:20:03;6.60;99.90
25248;DHT22;13191;47.472;11.214;2023-03-14T05:22:38;6.30;99.90
25248;DHT22;13191;47.472;11.214;2023-03-14T05:25:03;6.00;99.90
25248;DHT22;13191;47.472;11.214;2023-03-14T05:27:29;5.90;99.90
25248;DHT22;13191;47.472;11.214;2023-03-14T05:29:54;6.00;99.90
25248;DHT22;13191;47.472;11.214;2023-03-14T05:32:20;6.10;99.90
25248;DHT22;13191;47.472;11.214;2023-03-14T05:34:45;6.20;99.90
25248;DHT22;13191;47.472;11.214;2023-03-14T05:37:11;6.30;99.90
25248;DHT22;13191;47.472;11.214;2023-03-14T05:39:36;6.30;99.90
25248;DHT22;13191;47.472;11.214;2023-03-14T05:42:02;6.30;99.90
25248;DHT22;13191;47.472;11.214;2023-03-14T05:44:27;6.30;99.90
25248;DHT22;13191;47.472;11.214;2023-03-14T05:46:53;6.10;99.90
25248;DHT22;13191;47.472;11.214;2023-03-14T05:49:18;6.20;99.90
25248;DHT22;13191;47.472;11.214;2023-03-14T05:51:44;6.20;99.90
25248;DHT22;13191;47.472;11.214;2023-03-14T05:54:09;6.20;99.90
25248;DHT22;13191;47.472;11.214;2023-03-14T05:56:35;6.10;99.90
25248;DHT22;13191;47.472;11.214;2023-03-14T05:59:00;6.10;99.90
25248;DHT22;13191;47.472;11.214;2023-03-14T06:01:29;6.10;99.90
25248;DHT22;13191;47.472;11.214;2023-03-14T06:03:54;6.20;99.90
25248;DHT22;13191;47.472;11.214;2023-03-14T06:06:20;6.30;99.90
25248;DHT22;13191;47.472;11.214;2023-03-14T06:08:45;6.30;99.90
25248;DHT22;13191;47.472;11.214;2023-03-14T06:11:11;6.40;99.90
25248;DHT22;13191;47.472;11.214;2023-03-14T06:13:36;6.40;99.90
25248;DHT22;13191;47.472;11.214;2023-03-14T06:16:02;6.40;99.90
25248;DHT22;13191;47.472;11.214;2023-03-14T06:18:27;6.50;99.90
25248;DHT22;13191;47.472;11.214;2023-03-14T06:20:53;6.50;99.90
25248;DHT22;13191;47.472;11.214;2023-03-14T06:23:19;6.50;99.90
25248;DHT22;13191;47.472;11.214;2023-03-14T06:25:44;6.50;99.90
25248;DHT22;13191;47.472;11.214;2023-03-14T06:28:10;6.50;99.90
25248;DHT22;13191;47.472;11.214;2023-03-14T06:30:35;6.40;99.90
25248;DHT22;13191;47.472;11.214;2023-03-14T06:33:01;6.40;99.90
25248;DHT22;13191;47.472;11.214;2023-03-14T06:35:26;6.40;99.90
25248;DHT22;13191;47.472;11.214;2023-03-14T06:37:51;6.40;99.90
25248;DHT22;13191;47.472;11.214;2023-03-14T06:40:17;6.50;99.90
25248;DHT22;13191;47.472;11.214;2023-03-14T06:42:43;6.50;99.90
25248;DHT22;13191;47.472;11.214;2023-03-14T06:45:09;6.30;99.90
25248;DHT22;13191;47.472;11.214;2023-03-14T06:47:35;6.20;99.90
25248;DHT22;13191;47.472;11.214;2023-03-14T06:50:00;6.20;99.90
25248;DHT22;13191;47.472;11.214;2023-03-14T06:52:26;6.30;99.90
25248;DHT22;13191;47.472;11.214;2023-03-14T06:54:51;6.30;99.90
25248;DHT22;13191;47.472;11.214;2023-03-14T06:57:17;6.40;99.90
25248;DHT22;13191;47.472;11.214;2023-03-14T06:59:42;6.30;99.90
25248;DHT22;13191;47.472;11.214;2023-03-14T07:02:10;6.40;99.90
25248;DHT22;13191;47.472;11.214;2023-03-14T07:04:35;6.40;99.90
25248;DHT22;13191;47.472;11.214;2023-03-14T07:07:01;6.40;99.90
25248;DHT22;13191;47.472;11.214;2023-03-14T07:09:26;6.50;99.90
25248;DHT22;13191;47.472;11.214;2023-03-14T07:11:52;6.50;99.90
25248;DHT22;13191;47.472;11.214;2023-03-14T07:14:17;6.50;99.90
25248;DHT22;13191;47.472;11.214;2023-03-14T07:16:43;6.50;99.90
25248;DHT22;13191;47.472;11.214;2023-03-14T07:19:08;6.50;99.90
25248;DHT22;13191;47.472;11.214;2023-03-14T07:21:34;6.50;99.90
25248;DHT22;13191;47.472;11.214;2023-03-14T07:24:00;6.50;99.90
25248;DHT22;13191;47.472;11.214;2023-03-14T07:26:25;6.50;99.90
25248;DHT22;13191;47.472;11.214;2023-03-14T07:28:51;6.50;99.90
25248;DHT22;13191;47.472;11.214;2023-03-14T07:31:16;6.50;99.90
25248;DHT22;13191;47.472;11.214;2023-03-14T07:33:42;6.50;99.90
25248;DHT22;13191;47.472;11.214;2023-03-14T07:36:07;6.50;99.90
25248;DHT22;13191;47.472;11.214;2023-03-14T07:38:33;6.50;99.90
25248;DHT22;13191;47.472;11.214;2023-03-14T07:40:59;6.50;99.90
25248;DHT22;13191;47.472;11.214;2023-03-14T07:43:25;6.50;99.90
25248;DHT22;13191;47.472;11.214;2023-03-14T07:45:51;6.50;99.90
25248;DHT22;13191;47.472;11.214;2023-03-14T07:48:16;6.50;99.90
25248;DHT22;13191;47.472;11.214;2023-03-14T07:50:42;6.60;99.90
25248;DHT22;13191;47.472;11.214;2023-03-14T07:53:07;6.60;99.90
25248;DHT22;13191;47.472;11.214;2023-03-14T07:55:33;6.60;99.90
25248;DHT22;13191;47.472;11.214;2023-03-14T07:57:58;6.70;99.90
25248;DHT22;13191;47.472;11.214;2023-03-14T08:00:24;6.70;99.90
25248;DHT22;13191;47.472;11.214;2023-03-14T08:02:50;6.70;99.90
25248;DHT22;13191;47.472;11.214;2023-03-14T08:05:15;6.80;99.90
25248;DHT22;13191;47.472;11.214;2023-03-14T08:07:41;6.80;99.90
25248;DHT22;13191;47.472;11.214;2023-03-14T08:10:07;6.80;99.90
25248;DHT22;13191;47.472;11.214;2023-03-14T08:12:33;6.80;99.90
25248;DHT22;13191;47.472;11.214;2023-03-14T08:14:58;6.80;99.90
25248;DHT22;13191;47.472;11.214;2023-03-14T08:17:24;6.90;99.90
25248;DHT22;13191;47.472;11.214;2023-03-14T08:19:50;6.90;99.90
25248;DHT22;13191;47.472;11.214;2023-03-14T08:22:15;7.00;99.90
25248;DHT22;13191;47.472;11.214;2023-03-14T08:24:41;7.00;99.90
25248;DHT22;13191;47.472;11.214;2023-03-14T08:27:07;7.00;99.90
25248;DHT22;13191;47.472;11.214;2023-03-14T08:29:32;7.00;99.90
25248;DHT22;13191;47.472;11.214;2023-03-14T08:31:58;7.10;99.90
25248;DHT22;13191;47.472;11.214;2023-03-14T08:34:23;7.00;99.90
25248;DHT22;13191;47.472;11.214;2023-03-14T08:36:49;7.00;99.90
25248;DHT22;13191;47.472;11.214;2023-03-14T08:39:15;7.00;99.90
25248;DHT22;13191;47.472;11.214;2023-03-14T08:41:40;7.10;99.90
25248;DHT22;13191;47.472;11.214;2023-03-14T08:44:08;7.10;99.90
25248;DHT22;13191;47.472;11.214;2023-03-14T08:46:34;7.10;99.90
25248;DHT22;13191;47.472;11.214;2023-03-14T08:48:59;7.10;99.90
25248;DHT22;13191;47.472;11.214;2023-03-14T08:51:25;7.00;99.90
25248;DHT22;13191;47.472;11.214;2023-03-14T08:53:50;6.90;99.90
25248;DHT22;13191;47.472;11.214;2023-03-14T08:56:16;6.90;99.90
25248;DHT22;13191;47.472;11.214;2023-03-14T08:58:41;6.90;99.90
25248;DHT22;13191;47.472;11.214;2023-03-14T09:01:07;7.00;99.90
25248;DHT22;13191;47.472;11.214;2023-03-14T09:03:33;7.10;99.90
25248;DHT22;13191;47.472;11.214;2023-03-14T09:06:09;7.10;99.90
25248;DHT22;13191;47.472;11.214;2023-03-14T09:08:35;7.10;99.90
25248;DHT22;13191;47.472;11.214;2023-03-14T09:11:01;7.10;99.90
25248;DHT22;13191;47.472;11.214;2023-03-14T09:13:26;7.10;99.90
25248;DHT22;13191;47.472;11.214;2023-03-14T09:15:52;7.10;99.90
25248;DHT22;13191;47.472;11.214;2023-03-14T09:18:18;7.10;99.90
25248;DHT22;13191;47.472;11.214;2023-03-14T09:20:43;7.10;99.90
25248;DHT22;13191;47.472;11.214;2023-03-14T09:23:10;7.10;99.90
25248;DHT22;13191;47.472;11.214;2023-03-14T09:25:36;7.10;99.90
25248;DHT22;13191;47.472;11.214;2023-03-14T09:28:01;7.10;99.90
25248;DHT22;13191;47.472;11.214;2023-03-14T09:30:27;7.20;99.90
25248;DHT22;13191;47.472;11.214;2023-03-14T09:32:52;7.20;99.90
25248;DHT22;13191;47.472;11.214;2023-03-14T09:35:18;7.30;99.90
25248;DHT22;13191;47.472;11.214;2023-03-14T09:37:43;7.40;99.90
25248;DHT22;13191;47.472;11.214;2023-03-14T09:40:12;7.50;99.90
25248;DHT22;13191;47.472;11.214;2023-03-14T09:42:39;7.50;99.90
25248;DHT22;13191;47.472;11.214;2023-03-14T09:45:07;7.50;99.90
25248;DHT22;13191;47.472;11.214;2023-03-14T09:47:35;7.60;99.90
25248;DHT22;13191;47.472;11.214;2023-03-14T09:50:01;7.60;99.90
25248;DHT22;13191;47.472;11.214;2023-03-14T09:52:29;7.70;99.90
25248;DHT22;13191;47.472;11.214;2023-03-14T09:54:58;7.70;99.90
25248;DHT22;13191;47.472;11.214;2023-03-14T09:57:26;7.80;99.90
25248;DHT22;13191;47.472;11.214;2023-03-14T09:59:53;7.80;99.90
25248;DHT22;13191;47.472;11.214;2023-03-14T10:02:24;7.90;99.90
25248;DHT22;13191;47.472;11.214;2023-03-14T10:04:50;8.00;99.90
25248;DHT22;13191;47.472;11.214;2023-03-14T10:07:17;7.90;99.90
25248;DHT22;13191;47.472;11.214;2023-03-14T10:09:47;8.00;99.90
25248;DHT22;13191;47.472;11.214;2023-03-14T10:12:13;8.10;99.90
25248;DHT22;13191;47.472;11.214;2023-03-14T10:14:45;8.10;99.90
25248;DHT22;13191;47.472;11.214;2023-03-14T10:17:12;8.10;99.90
25248;DHT22;13191;47.472;11.214;2023-03-14T10:19:50;8.10;99.90
25248;DHT22;13191;47.472;11.214;2023-03-14T10:22:15;8.20;99.90
25248;DHT22;13191;47.472;11.214;2023-03-14T10:24:45;8.30;99.90
25248;DHT22;13191;47.472;11.214;2023-03-14T10:27:21;8.40;99.90
25248;DHT22;13191;47.472;11.214;2023-03-14T10:29:52;8.60;99.90
25248;DHT22;13191;47.472;11.214;2023-03-14T10:32:20;8.80;99.90
25248;DHT22;13191;47.472;11.214;2023-03-14T10:34:46;8.80;99.90
25248;DHT22;13191;47.472;11.214;2023-03-14T10:37:28;8.90;99.90
25248;DHT22;13191;47.472;11.214;2023-03-14T10:39:55;9.10;99.90
25248;DHT22;13191;47.472;11.214;2023-03-14T10:42:27;9.10;99.90
25248;DHT22;13191;47.472;11.214;2023-03-14T10:44:57;9.20;99.90
25248;DHT22;13191;47.472;11.214;2023-03-14T10:47:24;9.20;99.90
25248;DHT22;13191;47.472;11.214;2023-03-14T10:49:50;9.20;99.90
25248;DHT22;13191;47.472;11.214;2023-03-14T10:52:23;9.30;99.90
25248;DHT22;13191;47.472;11.214;2023-03-14T10:55:00;9.40;99.90
25248;DHT22;13191;47.472;11.214;2023-03-14T10:57:26;9.60;99.90
25248;DHT22;13191;47.472;11.214;2023-03-14T10:59:53;9.70;99.90
25248;DHT22;13191;47.472;11.214;2023-03-14T11:02:22;9.80;99.90
25248;DHT22;13191;47.472;11.214;2023-03-14T11:10:11;9.70;99.90
25248;DHT22;13191;47.472;11.214;2023-03-14T11:15:39;9.80;99.90
25248;DHT22;13191;47.472;11.214;2023-03-14T11:26:37;9.80;99.90
25248;DHT22;13191;47.472;11.214;2023-03-14T11:32:12;9.80;99.90
25248;DHT22;13191;47.472;11.214;2023-03-14T11:34:44;9.90;99.90
25248;DHT22;13191;47.472;11.214;2023-03-14T11:37:35;9.90;99.90
25248;DHT22;13191;47.472;11.214;2023-03-14T11:40:00;10.00;99.90
25248;DHT22;13191;47.472;11.214;2023-03-14T11:42:27;10.00;99.90
25248;DHT22;13191;47.472;11.214;2023-03-14T11:44:54;10.00;99.90
25248;DHT22;13191;47.472;11.214;2023-03-14T11:47:25;10.10;99.90
25248;DHT22;13191;47.472;11.214;2023-03-14T11:50:02;10.20;99.90
25248;DHT22;13191;47.472;11.214;2023-03-14T11:55:02;10.30;99.90
25248;DHT22;13191;47.472;11.214;2023-03-14T11:57:28;10.40;99.90
25248;DHT22;13191;47.472;11.214;2023-03-14T12:00:02;10.40;99.90
25248;DHT22;13191;47.472;11.214;2023-03-14T12:02:41;10.50;99.90
25248;DHT22;13191;47.472;11.214;2023-03-14T12:10:40;10.50;99.90
25248;DHT22;13191;47.472;11.214;2023-03-14T12:13:11;10.50;99.90
25248;DHT22;13191;47.472;11.214;2023-03-14T12:15:39;10.50;99.90
25248;DHT22;13191;47.472;11.214;2023-03-14T12:18:11;10.50;99.90
25248;DHT22;13191;47.472;11.214;2023-03-14T12:20:39;10.50;99.90
25248;DHT22;13191;47.472;11.214;2023-03-14T12:23:05;10.50;99.90
25248;DHT22;13191;47.472;11.214;2023-03-14T12:25:32;10.40;99.90
25248;DHT22;13191;47.472;11.214;2023-03-14T12:28:16;10.50;99.90
25248;DHT22;13191;47.472;11.214;2023-03-14T12:30:42;10.40;99.90
25248;DHT22;13191;47.472;11.214;2023-03-14T12:35:38;10.50;99.90
25248;DHT22;13191;47.472;11.214;2023-03-14T12:38:09;10.50;99.90
25248;DHT22;13191;47.472;11.214;2023-03-14T12:40:41;10.40;99.90
25248;DHT22;13191;47.472;11.214;2023-03-14T12:43:25;10.50;99.90
25248;DHT22;13191;47.472;11.214;2023-03-14T12:48:31;10.60;99.90
25248;DHT22;13191;47.472;11.214;2023-03-14T12:51:02;10.70;99.90
25248;DHT22;13191;47.472;11.214;2023-03-14T13:01:33;10.90;99.90
25248;DHT22;13191;47.472;11.214;2023-03-14T13:04:03;10.90;99.90
25248;DHT22;13191;47.472;11.214;2023-03-14T13:11:54;11.10;99.90
25248;DHT22;13191;47.472;11.214;2023-03-14T13:14:20;11.00;99.90
25248;DHT22;13191;47.472;11.214;2023-03-14T13:16:49;11.00;99.90
25248;DHT22;13191;47.472;11.214;2023-03-14T13:19:18;10.80;99.90
25248;DHT22;13191;47.472;11.214;2023-03-14T13:21:44;10.70;99.90
25248;DHT22;13191;47.472;11.214;2023-03-14T13:24:26;10.40;99.90
25248;DHT22;13191;47.472;11.214;2023-03-14T13:26:54;9.90;99.90
25248;DHT22;13191;47.472;11.214;2023-03-14T13:29:21;9.70;99.90
25248;DHT22;13191;47.472;11.214;2023-03-14T13:31:49;9.60;99.90
25248;DHT22;13191;47.472;11.214;2023-03-14T13:36:41;9.30;99.90
25248;DHT22;13191;47.472;11.214;2023-03-14T13:39:11;9.20;99.90
25248;DHT22;13191;47.472;11.214;2023-03-14T13:41:38;9.20;99.90
25248;DHT22;13191;47.472;11.214;2023-03-14T13:44:06;9.20;99.90
25248;DHT22;13191;47.472;11.214;2023-03-14T13:46:33;9.20;99.90
25248;DHT22;13191;47.472;11.214;2023-03-14T13:49:00;9.20;99.90
25248;DHT22;13191;47.472;11.214;2023-03-14T13:51:27;9.10;99.90
25248;DHT22;13191;47.472;11.214;2023-03-14T13:53:58;9.10;99.90
25248;DHT22;13191;47.472;11.214;2023-03-14T13:56:26;8.90;99.90
25248;DHT22;13191;47.472;11.214;2023-03-14T13:58:53;8.90;99.90
25248;DHT22;13191;47.472;11.214;2023-03-14T14:01:20;8.90;99.90
25248;DHT22;13191;47.472;11.214;2023-03-14T14:03:48;8.90;99.90
25248;DHT22;13191;47.472;11.214;2023-03-14T14:08:49;8.60;99.90
25248;DHT22;13191;47.472;11.214;2023-03-14T14:13:40;8.30;99.90
25248;DHT22;13191;47.472;11.214;2023-03-14T14:16:06;8.10;99.90
25248;DHT22;13191;47.472;11.214;2023-03-14T14:18:31;8.00;99.90
25248;DHT22;13191;47.472;11.214;2023-03-14T14:23:27;7.50;99.90
25248;DHT22;13191;47.472;11.214;2023-03-14T14:25:56;7.50;99.90
25248;DHT22;13191;47.472;11.214;2023-03-14T14:28:24;7.50;99.90
25248;DHT22;13191;47.472;11.214;2023-03-14T14:33:38;7.10;99.90
25248;DHT22;13191;47.472;11.214;2023-03-14T14:36:04;7.00;99.90
25248;DHT22;13191;47.472;11.214;2023-03-14T14:38:30;6.90;99.90
25248;DHT22;13191;47.472;11.214;2023-03-14T14:40:59;6.90;99.90
25248;DHT22;13191;47.472;11.214;2023-03-14T14:43:27;6.80;99.90
25248;DHT22;13191;47.472;11.214;2023-03-14T14:45:54;6.60;99.90
25248;DHT22;13191;47.472;11.214;2023-03-14T14:48:25;6.50;99.90
25248;DHT22;13191;47.472;11.214;2023-03-14T14:51:01;6.50;99.90
25248;DHT22;13191;47.472;11.214;2023-03-14T14:55:59;6.50;99.90
25248;DHT22;13191;47.472;11.214;2023-03-14T14:58:33;6.60;99.90
25248;DHT22;13191;47.472;11.214;2023-03-14T15:01:02;6.70;99.90
25248;DHT22;13191;47.472;11.214;2023-03-14T15:03:29;6.70;99.90
25248;DHT22;13191;47.472;11.214;2023-03-14T15:05:55;6.70;99.90
25248;DHT22;13191;47.472;11.214;2023-03-14T15:08:24;6.90;99.90
25248;DHT22;13191;47.472;11.214;2023-03-14T15:10:50;6.90;99.90
25248;DHT22;13191;47.472;11.214;2023-03-14T15:13:15;7.00;99.90
25248;DHT22;13191;47.472;11.214;2023-03-14T15:15:41;7.10;99.90
25248;DHT22;13191;47.472;11.214;2023-03-14T15:18:11;7.10;99.90
25248;DHT22;13191;47.472;11.214;2023-03-14T15:20:37;7.20;99.90
25248;DHT22;13191;47.472;11.214;2023-03-14T15:23:07;7.10;99.90
25248;DHT22;13191;47.472;11.214;2023-03-14T15:25:34;7.20;99.90
25248;DHT22;13191;47.472;11.214;2023-03-14T15:28:00;7.30;99.90
25248;DHT22;13191;47.472;11.214;2023-03-14T15:30:25;7.40;99.90
25248;DHT22;13191;47.472;11.214;2023-03-14T15:32:50;7.50;99.90
25248;DHT22;13191;47.472;11.214;2023-03-14T15:35:16;7.70;99.90
25248;DHT22;13191;47.472;11.214;2023-03-14T15:37:41;7.50;99.90
25248;DHT22;13191;47.472;11.214;2023-03-14T15:40:11;7.40;99.90
25248;DHT22;13191;47.472;11.214;2023-03-14T15:42:39;7.40;99.90
25248;DHT22;13191;47.472;11.214;2023-03-14T15:45:05;7.40;99.90
25248;DHT22;13191;47.472;11.214;2023-03-14T15:47:32;7.20;99.90
25248;DHT22;13191;47.472;11.214;2023-03-14T15:49:58;7.10;99.90
25248;DHT22;13191;47.472;11.214;2023-03-14T15:52:24;6.90;99.90
25248;DHT22;13191;47.472;11.214;2023-03-14T15:54:49;6.90;99.90
25248;DHT22;13191;47.472;11.214;2023-03-14T15:57:15;6.80;99.90
25248;DHT22;13191;47.472;11.214;2023-03-14T15:59:41;6.80;99.90
25248;DHT22;13191;47.472;11.214;2023-03-14T16:02:06;6.70;99.90
25248;DHT22;13191;47.472;11.214;2023-03-14T16:04:32;6.60;99.90
25248;DHT22;13191;47.472;11.214;2023-03-14T16:06:58;6.40;99.90
25248;DHT22;13191;47.472;11.214;2023-03-14T16:09:23;6.20;99.90
25248;DHT22;13191;47.472;11.214;2023-03-14T16:11:50;6.00;99.90
25248;DHT22;13191;47.472;11.214;2023-03-14T16:14:15;5.90;99.90
25248;DHT22;13191;47.472;11.214;2023-03-14T16:16:40;5.80;99.90
25248;DHT22;13191;47.472;11.214;2023-03-14T16:19:07;5.60;99.90
25248;DHT22;13191;47.472;11.214;2023-03-14T16:21:32;5.50;99.90
25248;DHT22;13191;47.472;11.214;2023-03-14T16:23:58;5.30;99.90
25248;DHT22;13191;47.472;11.214;2023-03-14T16:26:25;5.20;99.90
25248;DHT22;13191;47.472;11.214;2023-03-14T16:28:51;5.10;99.90
25248;DHT22;13191;47.472;11.214;2023-03-14T16:31:17;5.10;99.90
25248;DHT22;13191;47.472;11.214;2023-03-14T16:33:43;5.10;99.90
25248;DHT22;13191;47.472;11.214;2023-03-14T16:36:09;5.20;99.90